Time;durP1;ratioP1;P1;durP2;ratioP2;P2;SDS_P1;SDS_P2;PMS_P1;PMS_P2;Temp;Humidity;BMP_temperature;BMP_pressure;BME280_temperature;BME280_humidity;BME280_pressure;Samples;Min_cycle;Max_cycle;Signal;HPM_P1;HPM_P2
2021/08/26 00:06:19;;;;;;;9.20;3.95;;;21.00;51.50;;;;;;4995577;28;20096;-66
2021/08/26 00:08:48;;;;;;;6.63;3.88;;;21.00;51.30;;;;;;4995482;28;20072;-65
2021/08/26 00:11:16;;;;;;;6.55;4.20;;;20.90;51.40;;;;;;4995271;28;20076;-68
2021/08/26 00:13:45;;;;;;;5.43;3.40;;;20.90;51.50;;;;;;4995330;28;20052;-68
2021/08/26 00:16:11;;;;;;;6.00;4.03;;;20.80;51.60;;;;;;4995116;28;20101;-70
2021/08/26 00:18:37;;;;;;;11.52;4.68;;;20.80;51.90;;;;;;4995164;28;20482;-67
2021/08/26 00:21:03;;;;;;;6.72;3.75;;;20.90;51.50;;;;;;4995083;28;20035;-66
2021/08/26 00:23:29;;;;;;;4.78;3.60;;;20.80;51.30;;;;;;4995272;28;20030;-66
2021/08/26 00:25:54;;;;;;;5.45;3.85;;;20.80;51.30;;;;;;4994831;28;20444;-66
2021/08/26 00:28:20;;;;;;;7.00;3.75;;;20.80;52.10;;;;;;4995092;28;20039;-68
2021/08/26 00:30:46;;;;;;;5.35;3.60;;;20.80;51.50;;;;;;4994937;28;20376;-66
2021/08/26 00:33:11;;;;;;;5.88;3.80;;;20.80;52.20;;;;;;4994881;28;20120;-67
2021/08/26 00:35:37;;;;;;;4.63;3.70;;;20.80;52.70;;;;;;4994884;28;20046;-66
2021/08/26 00:38:03;;;;;;;5.05;3.70;;;20.80;52.20;;;;;;4994965;28;20027;-67
2021/08/26 00:40:29;;;;;;;6.25;3.90;;;20.70;52.00;;;;;;4994730;28;20030;-66
2021/08/26 00:42:57;;;;;;;6.60;3.90;;;20.70;53.40;;;;;;4994761;28;20434;-66
2021/08/26 00:45:23;;;;;;;8.52;3.83;;;20.70;52.20;;;;;;4994545;28;20130;-67
2021/08/26 00:47:49;;;;;;;4.50;3.70;;;20.70;51.90;;;;;;4994522;28;20058;-66
2021/08/26 00:50:16;;;;;;;5.10;3.85;;;20.70;51.70;;;;;;4994645;28;20049;-66
2021/08/26 00:52:42;;;;;;;7.20;4.03;;;20.70;51.90;;;;;;4994619;28;20077;-66
2021/08/26 00:55:09;;;;;;;5.15;3.53;;;20.70;51.80;;;;;;4994412;28;20475;-66
2021/08/26 00:57:35;;;;;;;5.78;4.10;;;20.80;51.80;;;;;;4993732;28;20035;-66
2021/08/26 01:00:05;;;;;;;5.28;4.00;;;20.80;51.60;;;;;;4991776;28;20173;-67
2021/08/26 01:02:40;;;;;;;7.93;4.50;;;20.70;51.70;;;;;;4991499;28;20113;-67
2021/08/26 01:05:19;;;;;;;7.18;3.70;;;20.80;51.90;;;;;;4992542;28;20049;-67
2021/08/26 01:07:55;;;;;;;4.85;3.53;;;20.70;51.70;;;;;;4994183;28;20121;-67
2021/08/26 01:10:23;;;;;;;6.85;3.90;;;20.80;52.10;;;;;;4993838;28;20050;-67
2021/08/26 01:12:53;;;;;;;6.80;3.83;;;20.70;52.00;;;;;;4993913;28;20058;-66
2021/08/26 01:15:19;;;;;;;5.45;3.90;;;20.70;52.20;;;;;;4976405;28;20034;-67
2021/08/26 01:17:46;;;;;;;6.32;3.88;;;20.70;52.50;;;;;;4993958;28;20101;-66
2021/08/26 01:20:13;;;;;;;9.27;4.10;;;20.60;52.70;;;;;;4993381;28;20043;-66
2021/08/26 01:22:39;;;;;;;6.05;4.03;;;20.60;52.70;;;;;;4993669;28;20038;-66
2021/08/26 01:25:08;;;;;;;5.60;3.55;;;20.50;53.40;;;;;;4993796;28;20038;-66
2021/08/26 01:27:57;;;;;;;9.70;4.05;;;20.50;53.80;;;;;;4993418;28;20105;-67
2021/08/26 01:30:26;;;;;;;8.18;4.38;;;20.50;53.90;;;;;;4993940;28;20030;-66
2021/08/26 01:32:57;;;;;;;9.00;4.03;;;20.50;53.70;;;;;;4993930;28;20446;-66
2021/08/26 01:35:26;;;;;;;7.53;4.10;;;20.40;54.30;;;;;;4993740;28;20387;-66
2021/08/26 01:37:53;;;;;;;7.50;4.03;;;20.40;54.10;;;;;;4993529;28;20042;-67
2021/08/26 01:40:37;;;;;;;6.28;4.28;;;20.40;54.50;;;;;;4993444;28;20070;-67
2021/08/26 01:43:11;;;;;;;7.25;4.03;;;20.40;54.40;;;;;;4993304;28;20030;-66
2021/08/26 01:45:43;;;;;;;8.13;4.05;;;20.30;54.30;;;;;;4993518;28;20046;-66
2021/08/26 01:48:12;;;;;;;5.30;3.53;;;20.30;54.10;;;;;;4993340;28;20030;-67
2021/08/26 01:50:37;;;;;;;5.88;3.95;;;20.30;54.20;;;;;;4993528;28;20038;-65
2021/08/26 01:53:04;;;;;;;8.80;4.10;;;20.30;54.30;;;;;;4993578;28;20030;-67
2021/08/26 01:55:30;;;;;;;8.88;4.85;;;20.20;54.10;;;;;;4993623;28;20085;-66
2021/08/26 01:57:56;;;;;;;7.70;3.92;;;20.20;55.30;;;;;;4993559;28;20054;-67
2021/08/26 02:00:22;;;;;;;6.00;4.30;;;20.10;55.80;;;;;;4995927;28;20495;-66
2021/08/26 02:02:47;;;;;;;5.60;4.32;;;20.10;55.20;;;;;;4997457;28;20034;-66
2021/08/26 02:05:13;;;;;;;8.02;4.13;;;20.10;56.40;;;;;;4997435;28;20047;-68
2021/08/26 02:07:50;;;;;;;8.02;4.43;;;20.10;55.50;;;;;;4997519;28;20034;-66
2021/08/26 02:10:16;;;;;;;6.60;3.58;;;20.10;55.40;;;;;;4998055;28;20054;-67
2021/08/26 02:12:42;;;;;;;9.00;4.47;;;20.00;56.20;;;;;;4997349;28;20403;-66
2021/08/26 02:15:09;;;;;;;6.40;4.28;;;19.90;56.60;;;;;;4997182;28;20046;-68
2021/08/26 02:17:35;;;;;;;6.70;3.88;;;19.90;56.90;;;;;;4997238;28;20483;-68
2021/08/26 02:20:01;;;;;;;5.65;4.05;;;19.90;57.10;;;;;;4997243;28;20048;-67
2021/08/26 02:22:27;;;;;;;7.20;4.32;;;19.90;57.40;;;;;;4997059;28;20038;-66
2021/08/26 02:24:52;;;;;;;6.70;3.95;;;19.90;57.20;;;;;;4997289;28;20038;-66
2021/08/26 02:27:18;;;;;;;6.43;4.25;;;19.80;57.70;;;;;;4997270;28;20101;-66
2021/08/26 02:29:43;;;;;;;7.05;4.38;;;19.90;56.60;;;;;;4997322;28;20535;-67
2021/08/26 02:32:09;;;;;;;5.85;3.92;;;19.80;56.70;;;;;;4997106;28;20490;-68
2021/08/26 02:34:35;;;;;;;7.95;4.10;;;19.80;56.60;;;;;;4997008;28;20043;-67
2021/08/26 02:37:01;;;;;;;6.15;4.10;;;19.80;56.30;;;;;;4996875;28;20030;-65
2021/08/26 02:39:26;;;;;;;6.25;4.10;;;19.80;56.10;;;;;;4997142;28;20078;-65
2021/08/26 02:41:52;;;;;;;6.43;4.03;;;19.80;56.00;;;;;;4997104;28;20390;-66
2021/08/26 02:44:18;;;;;;;8.63;3.67;;;19.80;56.00;;;;;;4996750;28;20038;-66
2021/08/26 02:46:43;;;;;;;5.75;3.95;;;19.80;56.70;;;;;;4996958;28;20039;-66
2021/08/26 02:49:09;;;;;;;6.40;4.10;;;19.80;57.30;;;;;;4996835;28;20133;-67
2021/08/26 02:51:35;;;;;;;8.23;4.00;;;19.80;56.70;;;;;;4996649;28;20030;-66
2021/08/26 02:54:00;;;;;;;5.88;3.88;;;19.80;57.20;;;;;;4996888;28;20030;-66
2021/08/26 02:56:26;;;;;;;6.15;4.00;;;19.70;57.20;;;;;;4996801;28;20041;-67
2021/08/26 02:58:52;;;;;;;7.20;3.63;;;19.70;57.20;;;;;;4996637;28;20031;-66
2021/08/26 03:01:18;;;;;;;7.25;4.15;;;19.70;58.00;;;;;;4996275;28;20035;-66
2021/08/26 03:03:43;;;;;;;11.43;4.18;;;19.70;57.30;;;;;;4996584;28;20077;-66
2021/08/26 03:06:09;;;;;;;8.40;3.92;;;19.60;57.30;;;;;;4996394;28;20096;-67
2021/08/26 03:08:35;;;;;;;5.15;3.58;;;19.60;58.50;;;;;;4996443;28;20031;-66
2021/08/26 03:11:01;;;;;;;6.82;3.88;;;19.50;57.80;;;;;;4996349;28;20053;-67
2021/08/26 03:13:27;;;;;;;7.55;4.25;;;19.50;58.20;;;;;;4996203;28;20202;-66
2021/08/26 03:15:52;;;;;;;10.05;4.25;;;19.50;58.10;;;;;;4996428;28;20035;-66
2021/08/26 03:18:18;;;;;;;5.38;3.83;;;19.50;58.00;;;;;;4996344;28;20046;-67
2021/08/26 03:20:44;;;;;;;10.55;3.90;;;19.60;57.70;;;;;;4996602;28;20026;-66
2021/08/26 03:23:10;;;;;;;8.88;4.07;;;;;;;;;;4996116;28;20030;-66
2021/08/26 03:25:36;;;;;;;5.85;3.70;;;19.50;57.50;;;;;;4996100;28;20049;-67
2021/08/26 03:28:02;;;;;;;6.28;4.10;;;19.50;58.00;;;;;;4995945;28;20039;-66
2021/08/26 03:30:28;;;;;;;6.22;4.22;;;19.50;57.70;;;;;;4996105;28;20053;-66
2021/08/26 03:32:53;;;;;;;9.13;4.22;;;19.50;57.10;;;;;;4995893;28;20031;-66
2021/08/26 03:35:19;;;;;;;6.15;3.63;;;19.50;56.70;;;;;;4995829;28;20074;-66
2021/08/26 03:37:45;;;;;;;7.25;3.90;;;19.50;57.20;;;;;;4996143;28;20046;-66
2021/08/26 03:40:11;;;;;;;6.35;3.80;;;19.40;57.30;;;;;;4995893;28;20395;-66
2021/08/26 03:42:37;;;;;;;7.80;4.10;;;19.40;58.30;;;;;;4996083;28;20415;-65
2021/08/26 03:45:03;;;;;;;6.88;3.90;;;;;;;;;;4995684;28;20053;-66
2021/08/26 03:47:29;;;;;;;10.48;3.90;;;19.40;57.80;;;;;;4995578;28;20092;-67
2021/08/26 03:49:55;;;;;;;6.60;3.60;;;19.40;58.90;;;;;;4995460;28;20113;-66
2021/08/26 03:52:21;;;;;;;6.38;4.22;;;;;;;;;;4995547;28;20387;-66
2021/08/26 03:54:47;;;;;;;5.50;4.18;;;19.30;58.00;;;;;;4995658;28;20042;-67
2021/08/26 03:57:12;;;;;;;8.50;4.35;;;19.30;58.50;;;;;;4995697;28;20033;-66
2021/08/26 03:59:38;;;;;;;7.45;4.03;;;19.20;59.50;;;;;;4995412;28;20038;-66
2021/08/26 04:02:04;;;;;;;6.47;4.47;;;;;;;;;;4995628;28;20399;-66
2021/08/26 04:04:30;;;;;;;8.20;4.18;;;19.10;60.00;;;;;;4995327;28;20118;-65
2021/08/26 04:06:55;;;;;;;8.40;4.20;;;19.10;60.10;;;;;;4995364;28;20535;-67
2021/08/26 04:09:21;;;;;;;7.13;4.57;;;;;;;;;;4995056;28;20578;-66
2021/08/26 04:11:47;;;;;;;5.53;4.25;;;19.00;59.60;;;;;;4995274;28;20034;-66
2021/08/26 04:14:13;;;;;;;8.13;4.57;;;18.90;60.10;;;;;;4995338;28;20373;-66
2021/08/26 04:16:39;;;;;;;7.18;4.78;;;18.90;59.70;;;;;;4995430;28;20040;-67
2021/08/26 04:19:04;;;;;;;7.60;4.47;;;18.90;60.40;;;;;;4995141;28;20038;-67
2021/08/26 04:21:31;;;;;;;7.38;4.22;;;18.90;61.70;;;;;;4994995;28;20109;-69
2021/08/26 04:23:57;;;;;;;6.45;4.15;;;18.80;60.70;;;;;;4994756;28;20031;-66
2021/08/26 04:26:23;;;;;;;11.55;4.35;;;18.80;60.40;;;;;;4995150;28;20061;-66
2021/08/26 04:28:48;;;;;;;6.32;3.85;;;18.80;59.70;;;;;;4995168;28;20041;-67
2021/08/26 04:31:14;;;;;;;5.97;3.97;;;18.80;60.30;;;;;;4994851;28;20035;-67
2021/08/26 04:33:40;;;;;;;8.35;4.10;;;18.90;60.00;;;;;;4995063;28;20038;-66
2021/08/26 04:36:05;;;;;;;6.40;4.07;;;18.90;59.90;;;;;;4994901;28;20403;-67
2021/08/26 04:38:31;;;;;;;8.73;4.50;;;19.00;59.40;;;;;;4995245;28;20391;-66
2021/08/26 04:40:57;;;;;;;12.50;5.00;;;19.00;59.80;;;;;;4994594;28;20046;-71
2021/08/26 04:43:22;;;;;;;12.65;4.55;;;18.90;60.00;;;;;;4994677;28;20031;-67
2021/08/26 04:45:48;;;;;;;11.65;4.78;;;18.90;60.70;;;;;;4994473;28;20039;-66
2021/08/26 04:48:14;;;;;;;78.82;8.50;;;18.90;60.00;;;;;;4977088;28;20039;-66
2021/08/26 04:50:39;;;;;;;37.88;5.47;;;18.90;59.50;;;;;;4994950;28;20037;-67
2021/08/26 04:53:05;;;;;;;13.13;4.85;;;18.80;60.40;;;;;;4994678;28;20045;-66
2021/08/26 04:55:31;;;;;;;11.85;4.78;;;18.80;60.30;;;;;;4994468;28;20062;-71
2021/08/26 04:57:56;;;;;;;10.43;4.97;;;18.80;60.60;;;;;;4994516;28;20035;-66
2021/08/26 05:00:22;;;;;;;13.20;4.82;;;18.70;61.70;;;;;;4994474;28;20035;-70
2021/08/26 05:02:48;;;;;;;9.00;5.00;;;18.70;61.80;;;;;;4994349;28;20091;-66
2021/08/26 05:05:14;;;;;;;6.70;4.50;;;18.60;61.90;;;;;;4994248;28;20038;-65
2021/08/26 05:07:39;;;;;;;6.47;4.38;;;18.70;62.60;;;;;;4994471;28;20482;-71
2021/08/26 05:10:06;;;;;;;11.80;4.78;;;18.70;62.10;;;;;;4994264;28;20043;-68
2021/08/26 05:12:31;;;;;;;7.18;4.47;;;18.70;62.20;;;;;;4994059;28;20485;-66
2021/08/26 05:14:57;;;;;;;5.50;4.15;;;18.70;61.80;;;;;;4993809;28;20153;-66
2021/08/26 05:17:23;;;;;;;8.27;4.13;;;18.70;62.30;;;;;;4994212;28;20070;-69
2021/08/26 05:19:49;;;;;;;7.38;4.18;;;18.70;61.90;;;;;;4994157;28;20065;-68
2021/08/26 05:22:14;;;;;;;7.32;4.53;;;18.80;62.30;;;;;;4993897;28;20097;-69
2021/08/26 05:24:40;;;;;;;8.38;5.13;;;18.80;62.10;;;;;;4993755;28;20042;-70
2021/08/26 05:27:06;;;;;;;10.00;4.50;;;18.80;62.40;;;;;;4994133;28;20471;-69
2021/08/26 05:29:32;;;;;;;12.20;4.32;;;18.80;61.70;;;;;;4993897;28;20038;-66
2021/08/26 05:31:57;;;;;;;10.07;4.82;;;18.80;62.50;;;;;;4994028;28;20041;-69
2021/08/26 05:34:23;;;;;;;13.48;4.35;;;18.80;62.70;;;;;;4992966;28;20027;-66
2021/08/26 05:36:49;;;;;;;8.40;4.50;;;18.80;62.40;;;;;;4993895;28;20113;-68
2021/08/26 05:39:14;;;;;;;13.50;4.25;;;18.90;62.30;;;;;;4993780;28;20081;-70
2021/08/26 05:41:46;;;;;;;14.48;4.65;;;18.90;61.60;;;;;;4993980;28;20517;-70
2021/08/26 05:44:16;;;;;;;10.30;4.35;;;18.90;62.50;;;;;;4993907;28;20129;-69
2021/08/26 05:46:44;;;;;;;8.13;4.30;;;19.00;62.20;;;;;;4993931;28;20078;-67
2021/08/26 05:49:09;;;;;;;25.63;5.05;;;18.90;61.50;;;;;;4993599;28;20077;-71
2021/08/26 05:51:35;;;;;;;10.25;4.75;;;19.00;61.30;;;;;;4993855;28;20062;-67
2021/08/26 05:54:01;;;;;;;12.48;4.97;;;19.00;62.00;;;;;;4993622;28;20030;-68
2021/08/26 05:56:27;;;;;;;9.05;4.75;;;19.00;62.50;;;;;;4993518;28;20050;-68
2021/08/26 05:58:53;;;;;;;11.10;4.70;;;19.00;63.00;;;;;;4993571;28;20031;-65
2021/08/26 06:01:19;;;;;;;10.80;4.97;;;19.10;62.60;;;;;;4993790;28;20038;-65
2021/08/26 06:03:45;;;;;;;8.40;4.22;;;19.10;62.50;;;;;;4993828;28;20038;-65
2021/08/26 06:06:10;;;;;;;7.03;4.38;;;19.20;63.00;;;;;;4993751;28;20057;-65
2021/08/26 06:08:36;;;;;;;8.07;4.50;;;19.20;62.20;;;;;;4993727;28;20030;-65
2021/08/26 06:11:02;;;;;;;12.48;4.65;;;19.40;72.50;;;;;;4993365;28;20034;-64
2021/08/26 06:13:28;;;;;;;8.65;4.30;;;;;;;;;;4993272;28;20065;-65
2021/08/26 06:15:54;;;;;;;6.57;4.15;;;;;;;;;;4993601;28;20046;-65
2021/08/26 06:18:21;;;;;;;8.70;4.32;;;19.40;61.00;;;;;;4993388;28;20402;-66
2021/08/26 06:20:47;;;;;;;8.25;4.38;;;19.50;60.60;;;;;;4993564;28;20042;-65
2021/08/26 06:23:14;;;;;;;7.13;3.88;;;19.50;59.60;;;;;;4993403;28;20035;-65
2021/08/26 06:25:39;;;;;;;11.18;4.00;;;19.60;60.20;;;;;;4993217;28;20053;-67
2021/08/26 06:28:05;;;;;;;7.20;4.57;;;19.60;60.40;;;;;;4993571;28;20034;-65
2021/08/26 06:30:31;;;;;;;6.72;3.83;;;19.70;59.60;;;;;;4993504;28;20054;-65
2021/08/26 06:32:57;;;;;;;4.57;3.40;;;19.80;59.00;;;;;;4993296;28;20475;-66
2021/08/26 06:35:23;;;;;;;7.13;3.95;;;19.80;58.50;;;;;;4993277;28;20096;-65
2021/08/26 06:37:49;;;;;;;5.82;3.70;;;19.90;58.00;;;;;;4993467;28;20030;-65
2021/08/26 06:40:14;;;;;;;8.25;3.58;;;20.00;58.80;;;;;;4993477;28;20034;-66
2021/08/26 06:42:40;;;;;;;5.72;3.53;;;20.00;57.90;;;;;;4993652;28;20046;-65
2021/08/26 06:45:06;;;;;;;6.45;3.63;;;20.10;58.30;;;;;;4993619;28;20511;-65
2021/08/26 06:47:32;;;;;;;9.52;3.95;;;20.20;57.90;;;;;;4996698;28;20391;-65
2021/08/26 06:49:58;;;;;;;7.57;3.80;;;20.20;57.70;;;;;;4996765;28;20042;-65
2021/08/26 06:52:23;;;;;;;8.98;3.95;;;20.30;57.90;;;;;;4997009;28;20030;-65
2021/08/26 06:54:49;;;;;;;8.63;4.20;;;20.30;57.80;;;;;;4996727;28;20035;-66
2021/08/26 06:57:15;;;;;;;7.78;3.97;;;20.40;57.80;;;;;;4996830;28;20031;-65
2021/08/26 06:59:40;;;;;;;7.80;3.95;;;20.50;57.40;;;;;;4996543;28;20085;-65
2021/08/26 07:02:07;;;;;;;5.22;3.53;;;20.50;57.50;;;;;;4996515;28;20463;-65
2021/08/26 07:04:32;;;;;;;7.97;3.63;;;20.50;56.90;;;;;;4996702;28;20436;-66
2021/08/26 07:06:58;;;;;;;4.75;3.35;;;20.60;56.50;;;;;;4996807;28;20066;-65
2021/08/26 07:09:24;;;;;;;4.93;3.60;;;20.60;56.70;;;;;;4996439;28;20057;-65
2021/08/26 07:11:50;;;;;;;6.03;3.40;;;20.70;56.80;;;;;;4996516;28;20069;-65
2021/08/26 07:14:16;;;;;;;5.68;3.83;;;20.70;57.10;;;;;;4996481;28;20435;-65
2021/08/26 07:16:42;;;;;;;6.82;3.70;;;20.80;56.60;;;;;;4996305;28;20026;-65
2021/08/26 07:19:08;;;;;;;5.68;3.75;;;20.80;56.10;;;;;;4996419;28;20442;-65
2021/08/26 07:21:33;;;;;;;8.13;3.47;;;20.90;56.40;;;;;;4996627;28;20074;-65
2021/08/26 07:23:59;;;;;;;5.32;3.47;;;21.00;55.70;;;;;;4996221;28;20042;-65
2021/08/26 07:26:25;;;;;;;7.25;3.42;;;21.00;56.00;;;;;;4996088;28;20498;-65
2021/08/26 07:28:54;;;;;;;7.22;3.55;;;21.10;56.20;;;;;;4996019;28;20038;-65
2021/08/26 07:31:21;;;;;;;4.50;3.53;;;21.20;55.80;;;;;;4996088;28;20050;-66
2021/08/26 07:33:46;;;;;;;4.95;3.60;;;21.30;55.20;;;;;;4996014;28;20527;-65
2021/08/26 07:36:12;;;;;;;8.38;3.72;;;21.30;55.40;;;;;;4995992;28;20187;-65
2021/08/26 07:38:38;;;;;;;4.88;3.47;;;21.40;55.30;;;;;;4996000;28;20045;-65
2021/08/26 07:41:03;;;;;;;4.32;3.60;;;21.50;55.30;;;;;;4995731;28;20038;-66
2021/08/26 07:43:31;;;;;;;4.15;3.25;;;21.60;55.10;;;;;;4995767;28;20549;-65
2021/08/26 07:46:00;;;;;;;7.93;3.60;;;21.70;54.80;;;;;;4995812;28;20050;-65
2021/08/26 07:48:26;;;;;;;7.10;3.85;;;21.80;53.70;;;;;;4995815;28;20041;-66
2021/08/26 07:50:53;;;;;;;5.07;3.65;;;21.80;54.00;;;;;;4995676;28;20077;-65
2021/08/26 07:53:21;;;;;;;8.30;3.55;;;21.80;52.90;;;;;;4995425;28;20038;-65
2021/08/26 07:55:46;;;;;;;6.47;3.85;;;21.90;53.40;;;;;;4995734;28;20038;-65
2021/08/26 07:58:12;;;;;;;7.80;3.75;;;22.00;53.50;;;;;;4994755;28;20161;-65
2021/08/26 08:00:38;;;;;;;6.97;3.67;;;21.90;53.30;;;;;;4995610;28;20056;-66
2021/08/26 08:03:04;;;;;;;4.18;3.22;;;21.90;53.00;;;;;;4995328;28;20031;-65
2021/08/26 08:05:31;;;;;;;6.68;3.53;;;22.00;53.20;;;;;;4995353;28;20042;-65
2021/08/26 08:07:57;;;;;;;5.65;3.60;;;22.10;54.00;;;;;;4995365;28;20396;-66
2021/08/26 08:10:23;;;;;;;4.63;3.30;;;22.20;54.30;;;;;;4995168;28;20127;-65
2021/08/26 08:12:49;;;;;;;7.60;3.70;;;22.30;54.20;;;;;;4995261;28;20394;-65
2021/08/26 08:15:15;;;;;;;9.88;3.53;;;22.50;53.90;;;;;;4994956;28;20030;-65
2021/08/26 08:17:41;;;;;;;9.65;3.88;;;22.50;52.90;;;;;;4995198;28;20439;-65
2021/08/26 08:20:09;;;;;;;5.03;3.67;;;22.60;53.10;;;;;;4995155;28;20537;-66
2021/08/26 08:22:35;;;;;;;8.48;3.38;;;22.60;51.10;;;;;;4995263;28;20088;-65
2021/08/26 08:25:02;;;;;;;8.07;3.30;;;22.70;51.60;;;;;;4995154;28;20398;-66
2021/08/26 08:27:27;;;;;;;6.22;3.58;;;22.70;51.60;;;;;;4994876;28;20119;-66
2021/08/26 08:29:53;;;;;;;4.88;3.50;;;22.70;52.10;;;;;;4994886;28;20515;-66
2021/08/26 08:32:19;;;;;;;7.55;3.55;;;22.70;52.60;;;;;;4994863;28;20042;-66
2021/08/26 08:34:44;;;;;;;7.57;3.03;;;22.80;52.40;;;;;;4994776;28;20375;-65
2021/08/26 08:37:10;;;;;;;7.00;3.83;;;22.80;51.80;;;;;;4994431;28;20038;-66
2021/08/26 08:39:36;;;;;;;7.07;4.25;;;22.80;51.80;;;;;;4994889;28;20046;-66
2021/08/26 08:42:01;;;;;;;10.77;4.47;;;22.90;52.10;;;;;;4977239;28;20038;-65
2021/08/26 08:44:27;;;;;;;7.68;3.78;;;23.00;51.70;;;;;;4994655;28;20109;-65
2021/08/26 08:46:58;;;;;;;5.45;3.70;;;23.10;51.60;;;;;;4994647;28;20074;-65
2021/08/26 08:49:24;;;;;;;6.90;3.53;;;23.10;51.70;;;;;;4994576;28;20395;-65
2021/08/26 08:51:51;;;;;;;5.22;3.20;;;23.10;51.50;;;;;;4994656;28;20043;-65
2021/08/26 08:54:18;;;;;;;4.10;3.17;;;23.20;51.90;;;;;;4994532;28;20034;-65
2021/08/26 08:56:44;;;;;;;7.05;3.45;;;23.20;51.60;;;;;;4994766;28;20045;-65
2021/08/26 08:59:09;;;;;;;5.13;3.15;;;23.20;51.60;;;;;;4994550;28;20031;-65
2021/08/26 09:01:35;;;;;;;7.75;3.75;;;23.20;51.20;;;;;;4994334;28;20060;-65
2021/08/26 09:04:02;;;;;;;4.47;2.88;;;23.30;51.40;;;;;;4994511;28;20026;-66
2021/08/26 09:06:41;;;;;;;5.55;3.55;;;23.30;50.90;;;;;;4994191;28;20050;-65
2021/08/26 09:09:07;;;;;;;5.80;3.60;;;23.30;50.90;;;;;;4994106;28;20082;-65
2021/08/26 09:11:33;;;;;;;6.10;3.60;;;23.30;50.70;;;;;;4994097;28;20521;-65
2021/08/26 09:14:10;;;;;;;6.75;3.20;;;23.40;50.50;;;;;;4994158;28;20031;-65
2021/08/26 09:16:39;;;;;;;6.13;3.42;;;23.40;50.30;;;;;;4993957;28;20088;-66
2021/08/26 09:19:24;;;;;;;7.57;3.55;;;23.40;50.20;;;;;;4994258;28;20096;-65
2021/08/26 09:21:50;;;;;;;6.88;3.22;;;23.50;50.00;;;;;;4994341;28;20066;-65
2021/08/26 09:24:16;;;;;;;7.15;3.85;;;23.50;50.10;;;;;;4993975;28;20522;-65
2021/08/26 09:26:46;;;;;;;10.35;3.83;;;23.60;49.60;;;;;;4993850;28;20121;-65
2021/08/26 09:29:12;;;;;;;5.85;3.35;;;23.60;49.70;;;;;;4994320;28;20066;-65
2021/08/26 09:31:38;;;;;;;4.93;3.10;;;23.60;49.50;;;;;;4994230;28;20072;-65
2021/08/26 09:34:04;;;;;;;4.55;3.50;;;23.70;49.20;;;;;;4993895;28;20030;-65
2021/08/26 09:36:38;;;;;;;6.15;3.80;;;23.70;48.90;;;;;;4994119;28;20487;-65
2021/08/26 09:39:07;;;;;;;6.70;3.40;;;23.80;49.90;;;;;;4993977;28;20475;-65
2021/08/26 09:41:48;;;;;;;6.72;3.22;;;23.90;47.80;;;;;;4993942;28;20108;-67
2021/08/26 09:44:17;;;;;;;7.72;3.38;;;24.00;48.30;;;;;;4993704;28;20034;-65
2021/08/26 09:46:46;;;;;;;11.80;3.20;;;24.10;48.30;;;;;;4993944;28;20042;-65
2021/08/26 09:49:14;;;;;;;7.60;3.85;;;24.20;48.40;;;;;;4993845;28;20030;-65
2021/08/26 09:51:41;;;;;;;8.45;4.28;;;24.20;48.90;;;;;;4993682;28;20038;-65
2021/08/26 09:54:30;;;;;;;5.00;3.22;;;24.40;48.50;;;;;;4993874;28;20033;-65
2021/08/26 09:56:56;;;;;;;8.40;3.42;;;24.50;48.60;;;;;;4993675;28;20025;-65
2021/08/26 09:59:53;;;;;;;5.68;3.30;;;24.60;49.10;;;;;;4993792;28;20035;-65
2021/08/26 10:02:19;;;;;;;6.55;3.15;;;24.70;46.90;;;;;;4993606;28;20035;-65
2021/08/26 10:04:46;;;;;;;5.10;3.70;;;24.80;46.90;;;;;;4993389;28;20038;-65
2021/08/26 10:07:12;;;;;;;5.30;3.53;;;24.80;45.50;;;;;;4993686;28;20042;-65
2021/08/26 10:09:40;;;;;;;5.65;4.22;;;24.80;47.30;;;;;;4993520;28;20047;-65
2021/08/26 10:12:08;;;;;;;6.75;3.53;;;24.80;46.70;;;;;;4993550;28;20130;-65
2021/08/26 10:14:33;;;;;;;5.15;3.50;;;24.80;46.70;;;;;;4993676;28;20039;-66
2021/08/26 10:17:00;;;;;;;9.00;3.20;;;24.90;46.10;;;;;;4993109;28;20154;-65
2021/08/26 10:19:26;;;;;;;4.82;3.22;;;24.80;44.50;;;;;;4993420;28;20602;-65
2021/08/26 10:21:52;;;;;;;4.55;3.53;;;24.80;45.00;;;;;;4996952;28;20113;-65
2021/08/26 10:24:20;;;;;;;7.20;3.78;;;24.80;45.20;;;;;;4997469;28;20034;-65
2021/08/26 10:26:50;;;;;;;8.25;3.40;;;24.80;45.90;;;;;;4997656;28;20380;-65
2021/08/26 10:29:17;;;;;;;9.05;3.47;;;24.80;46.40;;;;;;4997130;28;20066;-67
2021/08/26 10:32:01;;;;;;;5.03;3.58;;;24.90;46.80;;;;;;4997156;28;20030;-66
2021/08/26 10:34:29;;;;;;;6.68;3.92;;;24.90;46.50;;;;;;4979742;28;20494;-65
2021/08/26 10:36:54;;;;;;;5.38;3.42;;;24.90;45.70;;;;;;4997099;28;20026;-66
2021/08/26 10:39:36;;;;;;;7.72;3.67;;;25.00;44.60;;;;;;4997009;28;20040;-66
2021/08/26 10:42:28;;;;;;;;;;;25.00;44.80;;;;;;4997380;28;20057;-66
2021/08/26 10:45:07;;;;;;;4.95;3.20;;;24.90;45.80;;;;;;4996918;28;19916;-66
2021/08/26 10:47:52;;;;;;;4.28;3.30;;;24.90;43.90;;;;;;4996935;28;20039;-65
2021/08/26 10:50:18;;;;;;;4.55;3.17;;;24.80;45.10;;;;;;4996734;28;20031;-65
2021/08/26 10:53:23;;;;;;;5.40;3.53;;;24.90;46.10;;;;;;4996898;28;20034;-65
2021/08/26 10:55:51;;;;;;;9.90;3.40;;;24.80;45.40;;;;;;4986353;28;20080;-67
2021/08/26 10:58:23;;;;;;;5.00;3.17;;;24.90;46.50;;;;;;4996906;28;20035;-65
2021/08/26 11:00:49;;;;;;;4.57;3.55;;;24.90;45.80;;;;;;4996629;28;20030;-65
2021/08/26 11:03:45;;;;;;;5.45;3.42;;;24.90;45.90;;;;;;4996685;28;20121;-66
2021/08/26 11:06:17;;;;;;;6.05;3.50;;;25.00;44.80;;;;;;4996561;28;20446;-65
2021/08/26 11:08:52;;;;;;;;;;;25.00;45.30;;;;;;4996867;28;20047;-66
2021/08/26 11:11:27;;;;;;;4.47;3.15;;;25.00;45.00;;;;;;4996406;28;19905;-66
2021/08/26 11:14:03;;;;;;;5.88;3.47;;;25.00;44.70;;;;;;4996338;28;20089;-65
2021/08/26 11:16:29;;;;;;;5.18;3.25;;;25.00;45.30;;;;;;4996227;28;20479;-65
2021/08/26 11:19:16;;;;;;;6.95;3.67;;;25.10;44.70;;;;;;4996399;28;20092;-66
2021/08/26 11:21:45;;;;;;;7.70;3.40;;;25.10;45.40;;;;;;4982433;28;20038;-66
2021/08/26 11:24:16;;;;;;;7.78;3.55;;;25.20;45.70;;;;;;4996319;28;20499;-65
2021/08/26 11:26:48;;;;;;;7.68;3.22;;;25.20;45.90;;;;;;4996288;28;20073;-66
2021/08/26 11:29:25;;;;;;;6.40;3.80;;;25.20;45.10;;;;;;4996355;28;20034;-65
2021/08/26 11:32:03;;;;;;;10.43;3.63;;;25.20;44.90;;;;;;4996169;28;20113;-65
2021/08/26 11:34:36;;;;;;;5.38;3.45;;;25.20;44.10;;;;;;4996144;28;20030;-65
2021/08/26 11:37:23;;;;;;;8.63;3.80;;;25.20;44.30;;;;;;4996153;28;20030;-65
2021/08/26 11:39:55;;;;;;;4.88;3.42;;;25.10;44.40;;;;;;4995921;28;20030;-65
2021/08/26 11:42:25;;;;;;;6.63;3.53;;;25.10;44.60;;;;;;4995985;28;20530;-65
2021/08/26 11:45:29;;;;;;;5.50;3.47;;;25.10;44.60;;;;;;4995723;28;20117;-65
2021/08/26 11:47:58;;;;;;;5.70;3.25;;;25.10;45.00;;;;;;4916853;29;20043;-65
2021/08/26 11:50:28;;;;;;;6.97;3.30;;;25.10;45.10;;;;;;4916929;29;20123;-65
2021/08/26 11:52:55;;;;;;;5.03;3.65;;;25.10;45.10;;;;;;4958140;28;20357;-65
2021/08/26 11:55:26;;;;;;;6.32;3.38;;;25.20;46.00;;;;;;4995512;28;20038;-65
2021/08/26 11:58:03;;;;;;;6.07;3.40;;;25.30;45.60;;;;;;4995628;28;20065;-65
2021/08/26 12:00:29;;;;;;;5.80;3.50;;;25.50;45.90;;;;;;4995468;28;20040;-65
2021/08/26 12:02:57;;;;;;;6.15;3.38;;;25.60;50.80;;;;;;4995477;28;20110;-65
2021/08/26 12:05:25;;;;;;;9.30;3.40;;;25.70;46.60;;;;;;4995376;28;20133;-65
2021/08/26 12:07:52;;;;;;;9.77;3.88;;;25.80;60.10;;;;;;4995430;28;20037;-65
2021/08/26 12:10:22;;;;;;;8.43;3.67;;;25.80;46.20;;;;;;4995282;28;20042;-65
2021/08/26 12:12:51;;;;;;;5.45;3.67;;;25.70;45.80;;;;;;4995506;28;20409;-65
2021/08/26 12:15:24;;;;;;;7.22;3.70;;;25.60;46.40;;;;;;4995487;28;20042;-65
2021/08/26 12:18:04;;;;;;;5.13;3.55;;;25.60;45.60;;;;;;4995062;28;20035;-65
2021/08/26 12:20:35;;;;;;;9.77;3.65;;;25.60;46.20;;;;;;4995085;28;20041;-65
2021/08/26 12:23:02;;;;;;;4.90;3.27;;;25.60;46.50;;;;;;4995211;28;20038;-65
2021/08/26 12:25:32;;;;;;;5.90;3.50;;;25.60;45.70;;;;;;4995089;28;20494;-65
2021/08/26 12:28:01;;;;;;;13.38;4.20;;;25.60;47.00;;;;;;4995175;28;20069;-65
2021/08/26 12:30:29;;;;;;;7.75;3.25;;;25.70;47.00;;;;;;4994869;28;20045;-65
2021/08/26 12:33:16;;;;;;;8.88;3.35;;;25.80;49.00;;;;;;4994868;28;20387;-66
2021/08/26 12:35:50;;;;;;;5.63;3.53;;;25.90;46.70;;;;;;4994826;28;20483;-66
2021/08/26 12:38:36;;;;;;;8.90;3.30;;;26.00;44.30;;;;;;4994820;28;20038;-65
2021/08/26 12:41:07;;;;;;;5.15;3.30;;;26.00;43.60;;;;;;4994728;28;20443;-65
2021/08/26 12:43:54;;;;;;;8.05;3.38;;;26.00;44.30;;;;;;4994000;28;20034;-65
2021/08/26 12:46:24;;;;;;;9.35;3.45;;;26.20;45.30;;;;;;4994671;28;20046;-66
2021/08/26 12:48:52;;;;;;;10.27;3.60;;;26.20;44.00;;;;;;4994691;28;20035;-65
2021/08/26 12:51:23;;;;;;;4.68;3.30;;;26.20;43.70;;;;;;4994435;28;20112;-65
2021/08/26 12:54:11;;;;;;;6.33;3.27;;;26.20;44.10;;;;;;4994702;28;20033;-65
2021/08/26 12:56:44;;;;;;;6.70;3.53;;;26.20;44.70;;;;;;4994412;28;20519;-65
2021/08/26 12:59:11;;;;;;;5.57;3.30;;;26.30;43.10;;;;;;4994388;28;20034;-66